レイキャビク/ケフラヴィーク の空港の天気 - METARとTAF

ケフラヴィーク国際空港 ( BIKF / KEF ) - アイスランド ケプラヴィーク
飛行場実況気象(Metar)
観測時間05/25 10:30 GMT (05/25 10:30 UTC)
風向・風速北東 3m/s
視程4000m
天気現象弱い霧雨 弱い雨 もや
少しの雲 雲底高度 150m
全天の8割程度の雲 雲底高度 430m
全天を覆う雲 雲底高度 610m
気温9℃
湿度93%
気圧1004hPa
METARBIKF 251030Z 05006KT 020V110 4000 -DZRA BR FEW005 BKN014 OVC020 09/08 Q1004
過去の天気等 Google飛行場航空写真 Wunderground天気予報

過去48時間のMETAR

飛行場予報(TAF)
発表時間: 5/25 07:39 GMT (5/25 07:39 UTC)
予報対象時間: 25日9時 GMT ~ 26日9時 GMT
風向・風速北東 5m/s
視程5,000m
天気現象弱い雨霧雨
全天の8割程度の雲 雲底高度 240m
全天を覆う雲 雲底高度 460m
25日11時 GMT ~ 25日13時 GMT に徐々に
風向・風速南西 4m/s
視程10km以上
全天の4割程度の雲 雲底高度 370m
全天の8割程度の雲 雲底高度 760m
25日21時 GMT ~ 26日9時 GMT に一時的に
視程3,000m
天気現象雨霧雨 もや
全天の8割程度の雲 雲底高度 150m
全天を覆う雲 雲底高度 300m
TAF BIKF 250739Z 2509/2609 04010KT 5000 -RADZ BKN008 OVC015 TX10/2515Z TN07/2603Z
BECMG 2511/2513 23008KT 9999 SCT012 BKN025
TEMPO 2521/2609 3000 RADZ BR BKN005 OVC010